Garden, Michigan
Current Conditions -  °F | °C
As of 3:54 PM on Thursday 27 Nov 2014 (Local Time) from KISQ Reporting Station
Broken Clouds Broken Clouds  
Wind Chill:   Ceiling: 4100
Heat Index: 17°   Visibility: 10mi
Dew Point:   Wind: 10mph
Humidity: 70%   Direction: 320°NW
Pressure: 30.27"   Gusts: 18mph
Location:  45.77°N, 86.55°W
Report Text: KISQ 272054Z AUTO 32009G16KT 10SM BKN041 M08/M13 A3027 RMK AO2 T10821128
Loading
Personal Weather Stations






























Interactive Weather Map New forecast layout! Learn more

10-Day Weather Forecast

Advertisements
Track Severe Weather on mobile